sensor_id;sensor_type;location;lat;lon;timestamp;temperature;humidity
57753;DHT22;43583;53.132;6.574;2023-02-24T00:00:07;3.90;99.90
57753;DHT22;43583;53.132;6.574;2023-02-24T00:02:57;3.80;99.90
57753;DHT22;43583;53.132;6.574;2023-02-24T00:05:23;3.70;99.90
57753;DHT22;43583;53.132;6.574;2023-02-24T00:07:49;3.60;99.90
57753;DHT22;43583;53.132;6.574;2023-02-24T00:10:15;3.60;99.90
57753;DHT22;43583;53.132;6.574;2023-02-24T00:12:44;3.50;99.90
57753;DHT22;43583;53.132;6.574;2023-02-24T00:15:12;3.40;99.90
57753;DHT22;43583;53.132;6.574;2023-02-24T00:17:37;3.30;99.90
57753;DHT22;43583;53.132;6.574;2023-02-24T00:20:03;3.20;99.90
57753;DHT22;43583;53.132;6.574;2023-02-24T00:22:31;3.10;99.90
57753;DHT22;43583;53.132;6.574;2023-02-24T00:24:57;3.00;99.90
57753;DHT22;43583;53.132;6.574;2023-02-24T00:27:27;2.90;99.90
57753;DHT22;43583;53.132;6.574;2023-02-24T00:29:52;2.90;99.90
57753;DHT22;43583;53.132;6.574;2023-02-24T00:32:18;2.90;99.90
57753;DHT22;43583;53.132;6.574;2023-02-24T00:34:43;2.80;99.90
57753;DHT22;43583;53.132;6.574;2023-02-24T00:37:09;2.70;99.90
57753;DHT22;43583;53.132;6.574;2023-02-24T00:39:35;2.70;99.90
57753;DHT22;43583;53.132;6.574;2023-02-24T00:42:03;2.60;99.90
57753;DHT22;43583;53.132;6.574;2023-02-24T00:47:01;2.50;99.90
57753;DHT22;43583;53.132;6.574;2023-02-24T00:49:27;2.50;99.90
57753;DHT22;43583;53.132;6.574;2023-02-24T00:51:54;2.40;99.90
57753;DHT22;43583;53.132;6.574;2023-02-24T00:54:20;2.40;99.90
57753;DHT22;43583;53.132;6.574;2023-02-24T00:56:48;2.30;99.90
57753;DHT22;43583;53.132;6.574;2023-02-24T00:59:16;2.30;99.90
57753;DHT22;43583;53.132;6.574;2023-02-24T01:01:43;2.30;99.90
57753;DHT22;43583;53.132;6.574;2023-02-24T01:04:14;2.30;99.90
57753;DHT22;43583;53.132;6.574;2023-02-24T01:06:49;2.20;99.90
57753;DHT22;43583;53.132;6.574;2023-02-24T01:09:17;2.20;99.90
57753;DHT22;43583;53.132;6.574;2023-02-24T01:11:46;2.30;99.90
57753;DHT22;43583;53.132;6.574;2023-02-24T01:14:32;2.20;99.90
57753;DHT22;43583;53.132;6.574;2023-02-24T01:16:59;2.20;99.90
57753;DHT22;43583;53.132;6.574;2023-02-24T01:19:30;2.20;99.90
57753;DHT22;43583;53.132;6.574;2023-02-24T01:22:01;2.30;99.90
57753;DHT22;43583;53.132;6.574;2023-02-24T01:24:32;2.30;99.90
57753;DHT22;43583;53.132;6.574;2023-02-24T01:26:58;2.30;99.90
57753;DHT22;43583;53.132;6.574;2023-02-24T01:29:24;2.20;99.90
57753;DHT22;43583;53.132;6.574;2023-02-24T01:31:50;2.20;99.90
57753;DHT22;43583;53.132;6.574;2023-02-24T01:34:17;2.20;99.90
57753;DHT22;43583;53.132;6.574;2023-02-24T01:36:43;2.20;99.90
57753;DHT22;43583;53.132;6.574;2023-02-24T01:39:10;2.20;99.90
57753;DHT22;43583;53.132;6.574;2023-02-24T01:41:37;2.20;99.90
57753;DHT22;43583;53.132;6.574;2023-02-24T01:46:35;2.20;99.90
57753;DHT22;43583;53.132;6.574;2023-02-24T01:51:46;2.10;99.90
57753;DHT22;43583;53.132;6.574;2023-02-24T01:54:16;2.10;99.90
57753;DHT22;43583;53.132;6.574;2023-02-24T01:56:42;2.10;99.90
57753;DHT22;43583;53.132;6.574;2023-02-24T01:59:09;2.10;99.90
57753;DHT22;43583;53.132;6.574;2023-02-24T02:01:36;2.10;99.90
57753;DHT22;43583;53.132;6.574;2023-02-24T02:04:25;2.10;99.90
57753;DHT22;43583;53.132;6.574;2023-02-24T02:06:52;2.00;99.90
57753;DHT22;43583;53.132;6.574;2023-02-24T02:09:19;2.00;99.90
57753;DHT22;43583;53.132;6.574;2023-02-24T02:11:45;2.00;99.90
57753;DHT22;43583;53.132;6.574;2023-02-24T02:14:15;2.00;99.90
57753;DHT22;43583;53.132;6.574;2023-02-24T02:19:47;2.20;99.90
57753;DHT22;43583;53.132;6.574;2023-02-24T02:31:06;2.50;99.90
57753;DHT22;43583;53.132;6.574;2023-02-24T02:39:21;2.70;99.90
57753;DHT22;43583;53.132;6.574;2023-02-24T02:44:31;2.80;99.90
57753;DHT22;43583;53.132;6.574;2023-02-24T02:47:10;2.90;99.90
57753;DHT22;43583;53.132;6.574;2023-02-24T02:49:41;2.90;99.90
57753;DHT22;43583;53.132;6.574;2023-02-24T02:52:12;3.00;99.90
57753;DHT22;43583;53.132;6.574;2023-02-24T02:54:55;3.10;99.90
57753;DHT22;43583;53.132;6.574;2023-02-24T02:57:26;3.10;99.90
57753;DHT22;43583;53.132;6.574;2023-02-24T03:00:13;3.10;99.90
57753;DHT22;43583;53.132;6.574;2023-02-24T03:02:53;3.10;99.90
57753;DHT22;43583;53.132;6.574;2023-02-24T03:05:26;3.10;99.90
57753;DHT22;43583;53.132;6.574;2023-02-24T03:07:56;3.10;99.90
57753;DHT22;43583;53.132;6.574;2023-02-24T03:10:26;3.10;99.90
57753;DHT22;43583;53.132;6.574;2023-02-24T03:12:57;3.10;99.90
57753;DHT22;43583;53.132;6.574;2023-02-24T03:15:26;3.10;99.90
57753;DHT22;43583;53.132;6.574;2023-02-24T03:18:00;3.20;99.90
57753;DHT22;43583;53.132;6.574;2023-02-24T03:20:35;3.20;99.90
57753;DHT22;43583;53.132;6.574;2023-02-24T03:23:10;3.20;99.90
57753;DHT22;43583;53.132;6.574;2023-02-24T03:26:03;3.10;99.90
57753;DHT22;43583;53.132;6.574;2023-02-24T03:28:38;3.10;99.90
57753;DHT22;43583;53.132;6.574;2023-02-24T03:31:09;3.10;99.90
57753;DHT22;43583;53.132;6.574;2023-02-24T03:33:42;3.10;99.90
57753;DHT22;43583;53.132;6.574;2023-02-24T03:36:11;3.20;99.90
57753;DHT22;43583;53.132;6.574;2023-02-24T03:38:40;3.20;99.90
57753;DHT22;43583;53.132;6.574;2023-02-24T03:41:07;3.20;99.90
57753;DHT22;43583;53.132;6.574;2023-02-24T03:43:41;3.20;99.90
57753;DHT22;43583;53.132;6.574;2023-02-24T03:46:09;3.20;99.90
57753;DHT22;43583;53.132;6.574;2023-02-24T03:48:41;3.20;99.90
57753;DHT22;43583;53.132;6.574;2023-02-24T03:51:17;3.30;99.90
57753;DHT22;43583;53.132;6.574;2023-02-24T04:02:45;3.30;99.90
57753;DHT22;43583;53.132;6.574;2023-02-24T04:05:16;3.30;99.90
57753;DHT22;43583;53.132;6.574;2023-02-24T04:08:06;3.40;99.90
57753;DHT22;43583;53.132;6.574;2023-02-24T04:11:13;3.40;99.90
57753;DHT22;43583;53.132;6.574;2023-02-24T04:13:47;3.40;99.90
57753;DHT22;43583;53.132;6.574;2023-02-24T04:17:16;3.40;99.90
57753;DHT22;43583;53.132;6.574;2023-02-24T04:19:23;3.40;99.90
57753;DHT22;43583;53.132;6.574;2023-02-24T04:21:52;3.50;99.90
57753;DHT22;43583;53.132;6.574;2023-02-24T04:24:21;3.50;99.90
57753;DHT22;43583;53.132;6.574;2023-02-24T04:26:48;3.50;99.90
57753;DHT22;43583;53.132;6.574;2023-02-24T04:29:19;3.50;99.90
57753;DHT22;43583;53.132;6.574;2023-02-24T04:31:50;3.60;99.90
57753;DHT22;43583;53.132;6.574;2023-02-24T04:34:17;3.60;99.90
57753;DHT22;43583;53.132;6.574;2023-02-24T04:36:48;3.60;99.90
57753;DHT22;43583;53.132;6.574;2023-02-24T04:39:19;3.60;99.90
57753;DHT22;43583;53.132;6.574;2023-02-24T04:41:48;3.60;99.90
57753;DHT22;43583;53.132;6.574;2023-02-24T04:44:17;3.60;99.90
57753;DHT22;43583;53.132;6.574;2023-02-24T04:46:44;3.70;99.90
57753;DHT22;43583;53.132;6.574;2023-02-24T04:49:11;3.70;99.90
57753;DHT22;43583;53.132;6.574;2023-02-24T04:51:37;3.70;99.90
57753;DHT22;43583;53.132;6.574;2023-02-24T04:54:10;3.70;99.90
57753;DHT22;43583;53.132;6.574;2023-02-24T04:56:40;3.70;99.90
57753;DHT22;43583;53.132;6.574;2023-02-24T04:59:06;3.80;99.90
57753;DHT22;43583;53.132;6.574;2023-02-24T05:01:38;3.80;99.90
57753;DHT22;43583;53.132;6.574;2023-02-24T05:04:05;3.80;99.90
57753;DHT22;43583;53.132;6.574;2023-02-24T05:06:31;3.80;99.90
57753;DHT22;43583;53.132;6.574;2023-02-24T05:08:57;3.80;99.90
57753;DHT22;43583;53.132;6.574;2023-02-24T05:11:22;3.90;99.90
57753;DHT22;43583;53.132;6.574;2023-02-24T05:13:48;3.90;99.90
57753;DHT22;43583;53.132;6.574;2023-02-24T05:16:16;3.90;99.90
57753;DHT22;43583;53.132;6.574;2023-02-24T05:18:42;3.90;99.90
57753;DHT22;43583;53.132;6.574;2023-02-24T05:21:14;3.90;99.90
57753;DHT22;43583;53.132;6.574;2023-02-24T05:23:59;4.00;99.90
57753;DHT22;43583;53.132;6.574;2023-02-24T05:26:31;4.00;99.90
57753;DHT22;43583;53.132;6.574;2023-02-24T05:28:58;4.00;99.90
57753;DHT22;43583;53.132;6.574;2023-02-24T05:31:27;4.00;99.90
57753;DHT22;43583;53.132;6.574;2023-02-24T05:33:58;4.10;99.90
57753;DHT22;43583;53.132;6.574;2023-02-24T05:36:28;4.10;99.90
57753;DHT22;43583;53.132;6.574;2023-02-24T05:38:55;4.10;99.90
57753;DHT22;43583;53.132;6.574;2023-02-24T05:41:30;4.00;99.90
57753;DHT22;43583;53.132;6.574;2023-02-24T05:44:02;4.10;99.90
57753;DHT22;43583;53.132;6.574;2023-02-24T05:46:35;4.10;99.90
57753;DHT22;43583;53.132;6.574;2023-02-24T05:49:04;4.10;99.90
57753;DHT22;43583;53.132;6.574;2023-02-24T05:51:35;4.10;99.90
57753;DHT22;43583;53.132;6.574;2023-02-24T05:54:06;4.10;99.90
57753;DHT22;43583;53.132;6.574;2023-02-24T05:56:37;4.10;99.90
57753;DHT22;43583;53.132;6.574;2023-02-24T05:59:05;4.10;99.90
57753;DHT22;43583;53.132;6.574;2023-02-24T06:01:35;4.10;99.90
57753;DHT22;43583;53.132;6.574;2023-02-24T06:04:05;4.10;99.90
57753;DHT22;43583;53.132;6.574;2023-02-24T06:06:36;4.10;99.90
57753;DHT22;43583;53.132;6.574;2023-02-24T06:09:10;4.10;99.90
57753;DHT22;43583;53.132;6.574;2023-02-24T06:11:38;4.10;99.90
57753;DHT22;43583;53.132;6.574;2023-02-24T06:14:05;4.10;99.90
57753;DHT22;43583;53.132;6.574;2023-02-24T06:16:35;4.10;99.90
57753;DHT22;43583;53.132;6.574;2023-02-24T06:19:01;4.10;99.90
57753;DHT22;43583;53.132;6.574;2023-02-24T06:21:26;4.10;99.90
57753;DHT22;43583;53.132;6.574;2023-02-24T06:23:57;4.10;99.90
57753;DHT22;43583;53.132;6.574;2023-02-24T06:26:24;4.10;99.90
57753;DHT22;43583;53.132;6.574;2023-02-24T06:28:55;4.10;99.90
57753;DHT22;43583;53.132;6.574;2023-02-24T06:31:21;4.10;99.90
57753;DHT22;43583;53.132;6.574;2023-02-24T06:33:47;4.20;99.90
57753;DHT22;43583;53.132;6.574;2023-02-24T06:36:13;4.20;99.90
57753;DHT22;43583;53.132;6.574;2023-02-24T06:38:41;4.20;99.90
57753;DHT22;43583;53.132;6.574;2023-02-24T06:41:07;4.20;99.90
57753;DHT22;43583;53.132;6.574;2023-02-24T06:43:40;4.20;99.90
57753;DHT22;43583;53.132;6.574;2023-02-24T06:46:08;4.20;99.90
57753;DHT22;43583;53.132;6.574;2023-02-24T06:48:35;4.20;99.90
57753;DHT22;43583;53.132;6.574;2023-02-24T06:51:04;4.30;99.90
57753;DHT22;43583;53.132;6.574;2023-02-24T06:53:30;4.30;99.90
57753;DHT22;43583;53.132;6.574;2023-02-24T06:56:05;4.30;99.90
57753;DHT22;43583;53.132;6.574;2023-02-24T06:58:43;4.30;99.90
57753;DHT22;43583;53.132;6.574;2023-02-24T07:01:14;4.40;99.90
57753;DHT22;43583;53.132;6.574;2023-02-24T07:03:40;4.40;99.90
57753;DHT22;43583;53.132;6.574;2023-02-24T07:06:12;4.40;99.90
57753;DHT22;43583;53.132;6.574;2023-02-24T07:08:49;4.40;99.90
57753;DHT22;43583;53.132;6.574;2023-02-24T07:11:16;4.40;99.90
57753;DHT22;43583;53.132;6.574;2023-02-24T07:13:44;4.40;99.90
57753;DHT22;43583;53.132;6.574;2023-02-24T07:16:12;4.50;99.90
57753;DHT22;43583;53.132;6.574;2023-02-24T07:18:41;4.50;99.90
57753;DHT22;43583;53.132;6.574;2023-02-24T07:21:08;4.50;99.90
57753;DHT22;43583;53.132;6.574;2023-02-24T07:23:42;4.50;99.90
57753;DHT22;43583;53.132;6.574;2023-02-24T07:26:13;4.50;99.90
57753;DHT22;43583;53.132;6.574;2023-02-24T07:28:40;4.50;99.90
57753;DHT22;43583;53.132;6.574;2023-02-24T07:31:07;4.50;99.90
57753;DHT22;43583;53.132;6.574;2023-02-24T07:33:35;4.50;99.90
57753;DHT22;43583;53.132;6.574;2023-02-24T07:36:02;4.60;99.90
57753;DHT22;43583;53.132;6.574;2023-02-24T07:38:34;4.60;99.90
57753;DHT22;43583;53.132;6.574;2023-02-24T07:41:00;4.60;99.90
57753;DHT22;43583;53.132;6.574;2023-02-24T07:43:26;4.60;99.90
57753;DHT22;43583;53.132;6.574;2023-02-24T07:45:52;4.60;99.90
57753;DHT22;43583;53.132;6.574;2023-02-24T07:48:18;4.70;99.90
57753;DHT22;43583;53.132;6.574;2023-02-24T07:50:43;4.60;99.90
57753;DHT22;43583;53.132;6.574;2023-02-24T07:53:09;4.70;99.90
57753;DHT22;43583;53.132;6.574;2023-02-24T07:55:35;4.70;99.90
57753;DHT22;43583;53.132;6.574;2023-02-24T07:58:01;4.70;99.90
57753;DHT22;43583;53.132;6.574;2023-02-24T08:00:27;4.70;99.90
57753;DHT22;43583;53.132;6.574;2023-02-24T08:02:55;4.70;99.90
57753;DHT22;43583;53.132;6.574;2023-02-24T08:05:21;4.80;99.90
57753;DHT22;43583;53.132;6.574;2023-02-24T08:07:49;4.80;99.90
57753;DHT22;43583;53.132;6.574;2023-02-24T08:10:16;4.80;99.90
57753;DHT22;43583;53.132;6.574;2023-02-24T08:12:53;4.80;99.90
57753;DHT22;43583;53.132;6.574;2023-02-24T08:15:21;4.80;99.90
57753;DHT22;43583;53.132;6.574;2023-02-24T08:17:56;4.80;99.90
57753;DHT22;43583;53.132;6.574;2023-02-24T08:20:27;4.90;99.90
57753;DHT22;43583;53.132;6.574;2023-02-24T08:22:55;4.90;99.90
57753;DHT22;43583;53.132;6.574;2023-02-24T08:25:28;4.90;99.90
57753;DHT22;43583;53.132;6.574;2023-02-24T08:28:00;4.90;99.90
57753;DHT22;43583;53.132;6.574;2023-02-24T08:30:31;5.00;99.90
57753;DHT22;43583;53.132;6.574;2023-02-24T08:33:04;5.00;99.90
57753;DHT22;43583;53.132;6.574;2023-02-24T08:35:31;5.00;99.90
57753;DHT22;43583;53.132;6.574;2023-02-24T08:38:09;5.00;99.90
57753;DHT22;43583;53.132;6.574;2023-02-24T08:40:41;5.10;99.90
57753;DHT22;43583;53.132;6.574;2023-02-24T08:43:28;5.10;99.90
57753;DHT22;43583;53.132;6.574;2023-02-24T08:45:59;5.10;99.90
57753;DHT22;43583;53.132;6.574;2023-02-24T08:48:34;5.20;99.90
57753;DHT22;43583;53.132;6.574;2023-02-24T08:53:41;5.20;99.90
57753;DHT22;43583;53.132;6.574;2023-02-24T08:56:10;5.30;99.90
57753;DHT22;43583;53.132;6.574;2023-02-24T08:58:44;5.30;99.90
57753;DHT22;43583;53.132;6.574;2023-02-24T09:01:19;5.30;99.90
57753;DHT22;43583;53.132;6.574;2023-02-24T09:03:54;5.30;99.90
57753;DHT22;43583;53.132;6.574;2023-02-24T09:09:22;5.40;99.90
57753;DHT22;43583;53.132;6.574;2023-02-24T09:11:55;5.40;99.90
57753;DHT22;43583;53.132;6.574;2023-02-24T09:14:26;5.40;99.90
57753;DHT22;43583;53.132;6.574;2023-02-24T09:16:53;5.40;99.90
57753;DHT22;43583;53.132;6.574;2023-02-24T09:19:35;5.50;99.90
57753;DHT22;43583;53.132;6.574;2023-02-24T09:22:23;5.50;99.90
57753;DHT22;43583;53.132;6.574;2023-02-24T09:25:06;5.60;99.90
57753;DHT22;43583;53.132;6.574;2023-02-24T09:27:50;5.60;99.90
57753;DHT22;43583;53.132;6.574;2023-02-24T09:30:33;5.60;99.90
57753;DHT22;43583;53.132;6.574;2023-02-24T09:33:17;5.70;99.90
57753;DHT22;43583;53.132;6.574;2023-02-24T09:35:58;5.70;99.90
57753;DHT22;43583;53.132;6.574;2023-02-24T09:38:49;5.70;99.90
57753;DHT22;43583;53.132;6.574;2023-02-24T09:41:43;5.80;99.90
57753;DHT22;43583;53.132;6.574;2023-02-24T09:44:32;5.80;99.90
57753;DHT22;43583;53.132;6.574;2023-02-24T09:52:16;6.20;99.90
57753;DHT22;43583;53.132;6.574;2023-02-24T09:54:49;6.30;99.90
57753;DHT22;43583;53.132;6.574;2023-02-24T09:57:49;6.50;99.90
57753;DHT22;43583;53.132;6.574;2023-02-24T10:00:36;6.60;99.90
57753;DHT22;43583;53.132;6.574;2023-02-24T10:03:24;6.70;99.90
57753;DHT22;43583;53.132;6.574;2023-02-24T10:06:17;6.90;99.90
57753;DHT22;43583;53.132;6.574;2023-02-24T10:08:58;7.10;99.90
57753;DHT22;43583;53.132;6.574;2023-02-24T10:11:40;7.10;99.90
57753;DHT22;43583;53.132;6.574;2023-02-24T10:16:48;7.30;99.90
57753;DHT22;43583;53.132;6.574;2023-02-24T10:19:35;7.40;99.90
57753;DHT22;43583;53.132;6.574;2023-02-24T10:22:06;7.40;99.90
57753;DHT22;43583;53.132;6.574;2023-02-24T10:24:41;7.30;99.90
57753;DHT22;43583;53.132;6.574;2023-02-24T10:27:21;7.50;99.90
57753;DHT22;43583;53.132;6.574;2023-02-24T10:30:06;7.90;99.90
57753;DHT22;43583;53.132;6.574;2023-02-24T10:32:59;8.30;99.90
57753;DHT22;43583;53.132;6.574;2023-02-24T10:35:30;8.70;99.90
57753;DHT22;43583;53.132;6.574;2023-02-24T10:38:01;9.00;99.90
57753;DHT22;43583;53.132;6.574;2023-02-24T10:40:51;9.10;99.90
57753;DHT22;43583;53.132;6.574;2023-02-24T10:43:25;9.10;99.90
57753;DHT22;43583;53.132;6.574;2023-02-24T10:46:00;8.80;99.90
57753;DHT22;43583;53.132;6.574;2023-02-24T10:48:34;8.60;99.90
57753;DHT22;43583;53.132;6.574;2023-02-24T10:51:15;8.40;99.90
57753;DHT22;43583;53.132;6.574;2023-02-24T10:53:47;8.20;99.90
57753;DHT22;43583;53.132;6.574;2023-02-24T10:56:19;8.30;99.90
57753;DHT22;43583;53.132;6.574;2023-02-24T10:59:08;8.60;99.90
57753;DHT22;43583;53.132;6.574;2023-02-24T11:02:01;8.80;99.90
57753;DHT22;43583;53.132;6.574;2023-02-24T11:04:37;9.20;99.90
57753;DHT22;43583;53.132;6.574;2023-02-24T11:07:30;9.40;99.90
57753;DHT22;43583;53.132;6.574;2023-02-24T11:10:16;9.30;99.90
57753;DHT22;43583;53.132;6.574;2023-02-24T11:12:54;9.30;99.90
57753;DHT22;43583;53.132;6.574;2023-02-24T11:15:48;9.00;99.90
57753;DHT22;43583;53.132;6.574;2023-02-24T11:18:34;8.70;99.90
57753;DHT22;43583;53.132;6.574;2023-02-24T11:21:03;8.50;99.90
57753;DHT22;43583;53.132;6.574;2023-02-24T11:23:41;8.30;99.90
57753;DHT22;43583;53.132;6.574;2023-02-24T11:29:11;8.10;99.90
57753;DHT22;43583;53.132;6.574;2023-02-24T11:40:14;8.20;99.90
57753;DHT22;43583;53.132;6.574;2023-02-24T11:42:54;8.30;99.90
57753;DHT22;43583;53.132;6.574;2023-02-24T11:48:02;8.60;99.90
57753;DHT22;43583;53.132;6.574;2023-02-24T11:53:30;8.80;99.90
57753;DHT22;43583;53.132;6.574;2023-02-24T11:58:48;9.10;99.90
57753;DHT22;43583;53.132;6.574;2023-02-24T12:01:34;9.30;99.90
57753;DHT22;43583;53.132;6.574;2023-02-24T12:04:16;9.30;99.90
57753;DHT22;43583;53.132;6.574;2023-02-24T12:07:06;8.80;99.90
57753;DHT22;43583;53.132;6.574;2023-02-24T12:09:42;8.30;99.90
57753;DHT22;43583;53.132;6.574;2023-02-24T12:14:56;8.00;99.90
57753;DHT22;43583;53.132;6.574;2023-02-24T12:17:36;8.10;99.90
57753;DHT22;43583;53.132;6.574;2023-02-24T12:20:22;8.40;99.90
57753;DHT22;43583;53.132;6.574;2023-02-24T12:22:55;8.40;99.90
57753;DHT22;43583;53.132;6.574;2023-02-24T12:25:27;8.60;99.90
57753;DHT22;43583;53.132;6.574;2023-02-24T12:28:11;8.70;99.90
57753;DHT22;43583;53.132;6.574;2023-02-24T12:34:06;9.10;99.90
57753;DHT22;43583;53.132;6.574;2023-02-24T12:42:27;8.60;99.90
57753;DHT22;43583;53.132;6.574;2023-02-24T12:45:07;8.50;99.90
57753;DHT22;43583;53.132;6.574;2023-02-24T12:47:59;8.40;99.90
57753;DHT22;43583;53.132;6.574;2023-02-24T12:53:16;8.60;99.90
57753;DHT22;43583;53.132;6.574;2023-02-24T12:56:12;8.60;99.90
57753;DHT22;43583;53.132;6.574;2023-02-24T12:58:42;8.70;99.90
57753;DHT22;43583;53.132;6.574;2023-02-24T13:12:01;8.50;99.90
57753;DHT22;43583;53.132;6.574;2023-02-24T13:14:33;8.40;99.90
57753;DHT22;43583;53.132;6.574;2023-02-24T13:19:42;8.40;99.90
57753;DHT22;43583;53.132;6.574;2023-02-24T13:24:39;8.40;99.90
57753;DHT22;43583;53.132;6.574;2023-02-24T13:29:57;8.30;99.90
57753;DHT22;43583;53.132;6.574;2023-02-24T13:34:58;8.30;99.90
57753;DHT22;43583;53.132;6.574;2023-02-24T13:37:33;8.30;99.90
57753;DHT22;43583;53.132;6.574;2023-02-24T13:40:00;8.30;99.90
57753;DHT22;43583;53.132;6.574;2023-02-24T13:42:36;8.20;99.90
57753;DHT22;43583;53.132;6.574;2023-02-24T13:45:04;8.10;99.90
57753;DHT22;43583;53.132;6.574;2023-02-24T13:50:53;7.80;99.90
57753;DHT22;43583;53.132;6.574;2023-02-24T13:53:33;7.70;99.90
57753;DHT22;43583;53.132;6.574;2023-02-24T13:58:56;7.60;99.90
57753;DHT22;43583;53.132;6.574;2023-02-24T14:01:26;7.70;99.90
57753;DHT22;43583;53.132;6.574;2023-02-24T14:04:25;7.80;99.90
57753;DHT22;43583;53.132;6.574;2023-02-24T14:06:54;7.90;99.90
57753;DHT22;43583;53.132;6.574;2023-02-24T14:09:24;7.80;99.90
57753;DHT22;43583;53.132;6.574;2023-02-24T14:11:56;7.60;99.90
57753;DHT22;43583;53.132;6.574;2023-02-24T14:14:23;7.40;99.90
57753;DHT22;43583;53.132;6.574;2023-02-24T14:16:50;7.30;99.90
57753;DHT22;43583;53.132;6.574;2023-02-24T14:19:16;7.20;99.90
57753;DHT22;43583;53.132;6.574;2023-02-24T14:21:54;7.20;99.90
57753;DHT22;43583;53.132;6.574;2023-02-24T14:24:20;7.20;99.90
57753;DHT22;43583;53.132;6.574;2023-02-24T14:26:55;7.20;99.90
57753;DHT22;43583;53.132;6.574;2023-02-24T14:29:24;7.20;99.90
57753;DHT22;43583;53.132;6.574;2023-02-24T14:31:53;7.20;99.90
57753;DHT22;43583;53.132;6.574;2023-02-24T14:34:21;7.30;99.90
57753;DHT22;43583;53.132;6.574;2023-02-24T14:36:50;7.30;99.90
57753;DHT22;43583;53.132;6.574;2023-02-24T14:39:18;7.30;99.90
57753;DHT22;43583;53.132;6.574;2023-02-24T14:41:44;7.20;99.90
57753;DHT22;43583;53.132;6.574;2023-02-24T14:44:25;7.10;99.90
57753;DHT22;43583;53.132;6.574;2023-02-24T14:46:54;7.10;99.90
57753;DHT22;43583;53.132;6.574;2023-02-24T14:49:26;7.10;99.90
57753;DHT22;43583;53.132;6.574;2023-02-24T14:52:08;7.00;99.90
57753;DHT22;43583;53.132;6.574;2023-02-24T14:55:01;7.10;99.90
57753;DHT22;43583;53.132;6.574;2023-02-24T14:57:33;7.20;99.90
57753;DHT22;43583;53.132;6.574;2023-02-24T15:00:24;7.20;99.90
57753;DHT22;43583;53.132;6.574;2023-02-24T15:05:26;7.20;99.90
57753;DHT22;43583;53.132;6.574;2023-02-24T15:07:52;7.20;99.90
57753;DHT22;43583;53.132;6.574;2023-02-24T15:10:20;7.10;99.90
57753;DHT22;43583;53.132;6.574;2023-02-24T15:12:55;7.10;99.90
57753;DHT22;43583;53.132;6.574;2023-02-24T15:15:34;7.10;99.90
57753;DHT22;43583;53.132;6.574;2023-02-24T15:18:10;7.10;99.90
57753;DHT22;43583;53.132;6.574;2023-02-24T15:20:39;7.20;99.90
57753;DHT22;43583;53.132;6.574;2023-02-24T15:23:24;7.20;99.90
57753;DHT22;43583;53.132;6.574;2023-02-24T15:25:49;7.30;99.90
57753;DHT22;43583;53.132;6.574;2023-02-24T15:28:27;7.30;99.90
57753;DHT22;43583;53.132;6.574;2023-02-24T15:33:23;7.00;99.90
57753;DHT22;43583;53.132;6.574;2023-02-24T15:35:52;6.90;99.90
57753;DHT22;43583;53.132;6.574;2023-02-24T15:38:24;6.80;99.90
57753;DHT22;43583;53.132;6.574;2023-02-24T15:40:56;6.80;99.90
57753;DHT22;43583;53.132;6.574;2023-02-24T15:43:46;6.80;99.90
57753;DHT22;43583;53.132;6.574;2023-02-24T15:46:27;6.80;99.90
57753;DHT22;43583;53.132;6.574;2023-02-24T15:48:54;6.80;99.90
57753;DHT22;43583;53.132;6.574;2023-02-24T15:53:55;6.80;99.90
57753;DHT22;43583;53.132;6.574;2023-02-24T15:56:21;6.80;99.90
57753;DHT22;43583;53.132;6.574;2023-02-24T15:58:46;6.80;99.90
57753;DHT22;43583;53.132;6.574;2023-02-24T16:01:12;6.80;99.90
57753;DHT22;43583;53.132;6.574;2023-02-24T16:03:38;6.70;99.90
57753;DHT22;43583;53.132;6.574;2023-02-24T16:06:04;6.70;99.90
57753;DHT22;43583;53.132;6.574;2023-02-24T16:08:30;6.60;99.90
57753;DHT22;43583;53.132;6.574;2023-02-24T16:10:57;6.50;99.90
57753;DHT22;43583;53.132;6.574;2023-02-24T16:13:24;6.30;99.90
57753;DHT22;43583;53.132;6.574;2023-02-24T16:15:51;6.20;99.90
57753;DHT22;43583;53.132;6.574;2023-02-24T16:18:20;6.10;99.90
57753;DHT22;43583;53.132;6.574;2023-02-24T16:20:47;6.00;99.90
57753;DHT22;43583;53.132;6.574;2023-02-24T16:23:22;5.90;99.90
57753;DHT22;43583;53.132;6.574;2023-02-24T16:25:50;5.80;99.90
57753;DHT22;43583;53.132;6.574;2023-02-24T16:28:19;5.80;99.90
57753;DHT22;43583;53.132;6.574;2023-02-24T16:30:46;5.70;99.90
57753;DHT22;43583;53.132;6.574;2023-02-24T16:33:13;5.70;99.90
57753;DHT22;43583;53.132;6.574;2023-02-24T16:35:41;5.70;99.90
57753;DHT22;43583;53.132;6.574;2023-02-24T16:38:12;5.70;99.90
57753;DHT22;43583;53.132;6.574;2023-02-24T16:40:41;5.70;99.90
57753;DHT22;43583;53.132;6.574;2023-02-24T16:43:07;5.70;99.90
57753;DHT22;43583;53.132;6.574;2023-02-24T16:45:33;5.70;99.90
57753;DHT22;43583;53.132;6.574;2023-02-24T16:48:05;5.70;99.90
57753;DHT22;43583;53.132;6.574;2023-02-24T16:50:35;5.70;99.90
57753;DHT22;43583;53.132;6.574;2023-02-24T16:53:04;5.70;99.90
57753;DHT22;43583;53.132;6.574;2023-02-24T16:55:29;5.70;99.90
57753;DHT22;43583;53.132;6.574;2023-02-24T16:57:55;5.70;99.90
57753;DHT22;43583;53.132;6.574;2023-02-24T17:00:21;5.70;99.90
57753;DHT22;43583;53.132;6.574;2023-02-24T17:02:48;5.60;99.90
57753;DHT22;43583;53.132;6.574;2023-02-24T17:05:18;5.60;99.90
57753;DHT22;43583;53.132;6.574;2023-02-24T17:07:45;5.60;99.90
57753;DHT22;43583;53.132;6.574;2023-02-24T17:10:11;5.60;99.90
57753;DHT22;43583;53.132;6.574;2023-02-24T17:12:37;5.60;99.90
57753;DHT22;43583;53.132;6.574;2023-02-24T17:15:02;5.60;99.90
57753;DHT22;43583;53.132;6.574;2023-02-24T17:17:28;5.60;99.90
57753;DHT22;43583;53.132;6.574;2023-02-24T17:19:54;5.60;99.90
57753;DHT22;43583;53.132;6.574;2023-02-24T17:22:19;5.70;99.90
57753;DHT22;43583;53.132;6.574;2023-02-24T17:24:46;5.60;99.90
57753;DHT22;43583;53.132;6.574;2023-02-24T17:27:12;5.70;99.90
57753;DHT22;43583;53.132;6.574;2023-02-24T17:29:38;5.70;99.90
57753;DHT22;43583;53.132;6.574;2023-02-24T17:32:04;5.60;99.90
57753;DHT22;43583;53.132;6.574;2023-02-24T17:34:29;5.50;99.90
57753;DHT22;43583;53.132;6.574;2023-02-24T17:36:55;5.40;99.90
57753;DHT22;43583;53.132;6.574;2023-02-24T17:39:21;5.40;99.90
57753;DHT22;43583;53.132;6.574;2023-02-24T17:41:46;5.30;99.90
57753;DHT22;43583;53.132;6.574;2023-02-24T17:44:12;5.30;99.90
57753;DHT22;43583;53.132;6.574;2023-02-24T17:46:38;5.20;99.90
57753;DHT22;43583;53.132;6.574;2023-02-24T17:49:03;5.20;99.90
57753;DHT22;43583;53.132;6.574;2023-02-24T17:51:30;5.20;99.90
57753;DHT22;43583;53.132;6.574;2023-02-24T17:53:56;5.20;99.90
57753;DHT22;43583;53.132;6.574;2023-02-24T17:56:22;5.10;99.90
57753;DHT22;43583;53.132;6.574;2023-02-24T17:58:47;5.00;99.90
57753;DHT22;43583;53.132;6.574;2023-02-24T18:01:13;5.00;99.90
57753;DHT22;43583;53.132;6.574;2023-02-24T18:03:38;4.90;99.90
57753;DHT22;43583;53.132;6.574;2023-02-24T18:06:07;4.90;99.90
57753;DHT22;43583;53.132;6.574;2023-02-24T18:08:33;5.00;99.90
57753;DHT22;43583;53.132;6.574;2023-02-24T18:11:00;5.00;99.90
57753;DHT22;43583;53.132;6.574;2023-02-24T18:13:27;5.00;99.90